createdAt,value
2019-05-16T00:00:24.979Z,2.80
2019-05-16T00:02:51.845Z,4.50
2019-05-16T00:05:19.101Z,2.53
2019-05-16T00:07:45.984Z,3.27
2019-05-16T00:10:14.059Z,2.20
2019-05-16T00:12:40.814Z,2.23
2019-05-16T00:15:08.971Z,4.30
2019-05-16T00:17:38.296Z,5.53
2019-05-16T00:20:05.345Z,2.97
2019-05-16T00:22:32.083Z,2.50
2019-05-16T00:24:58.860Z,3.43
2019-05-16T00:27:27.895Z,3.47
2019-05-16T00:29:54.579Z,3.63
2019-05-16T00:32:21.444Z,2.10
2019-05-16T00:34:48.185Z,1.33
2019-05-16T00:37:14.967Z,2.20
2019-05-16T00:39:41.711Z,1.73
2019-05-16T00:42:08.969Z,1.60
2019-05-16T00:44:35.887Z,2.17
2019-05-16T00:47:02.822Z,3.03
2019-05-16T00:49:29.896Z,3.40
2019-05-16T00:51:58.428Z,2.80
2019-05-16T00:54:27.722Z,1.80
2019-05-16T00:56:54.611Z,6.43
2019-05-16T00:59:21.848Z,3.50
2019-05-16T01:01:50.013Z,5.40
2019-05-16T01:04:18.224Z,2.13
2019-05-16T01:06:45.198Z,2.73
2019-05-16T01:09:12.127Z,3.07
2019-05-16T01:11:38.881Z,4.90
2019-05-16T01:14:05.853Z,6.50
2019-05-16T01:16:32.691Z,2.17
2019-05-16T01:18:59.695Z,4.20
2019-05-16T01:21:28.579Z,2.03
2019-05-16T01:23:55.348Z,3.87
2019-05-16T01:26:22.194Z,2.90
2019-05-16T01:28:49.048Z,1.97
2019-05-16T01:31:15.883Z,2.07
2019-05-16T01:33:42.883Z,5.67
2019-05-16T01:36:09.807Z,7.53
2019-05-16T01:38:38.852Z,2.73
2019-05-16T01:41:05.470Z,2.20
2019-05-16T01:43:32.307Z,7.57
2019-05-16T01:45:59.192Z,3.80
2019-05-16T01:48:26.108Z,4.93
2019-05-16T01:50:52.881Z,4.50
2019-05-16T01:53:19.736Z,1.30
2019-05-16T01:55:48.617Z,2.07
2019-05-16T01:58:15.539Z,1.63
2019-05-16T02:00:52.487Z,3.57
2019-05-16T02:03:11.221Z,4.80
2019-05-16T02:05:38.698Z,2.53
2019-05-16T02:08:06.006Z,3.77
2019-05-16T02:10:33.048Z,2.47
2019-05-16T02:12:59.803Z,2.50
2019-05-16T02:15:28.612Z,5.70
2019-05-16T02:17:55.611Z,6.27
2019-05-16T02:20:22.352Z,5.10
2019-05-16T02:22:49.222Z,3.57
2019-05-16T02:25:18.473Z,3.33
2019-05-16T02:27:45.159Z,5.10
2019-05-16T02:30:13.932Z,4.70
2019-05-16T02:32:41.672Z,3.10
2019-05-16T02:35:11.818Z,3.17
2019-05-16T02:37:41.725Z,3.83
2019-05-16T02:40:11.634Z,4.50
2019-05-16T02:43:01.485Z,5.40
2019-05-16T02:45:27.340Z,6.17
2019-05-16T02:47:56.115Z,3.83
2019-05-16T02:50:23.128Z,3.10
2019-05-16T02:52:51.668Z,2.80
2019-05-16T02:55:21.378Z,2.77
2019-05-16T02:57:47.652Z,6.47
2019-05-16T03:00:20.905Z,3.23
2019-05-16T03:02:50.374Z,4.40
2019-05-16T03:05:16.443Z,3.10
2019-05-16T03:07:47.025Z,3.47
2019-05-16T03:10:13.401Z,2.87
2019-05-16T03:12:43.593Z,2.97
2019-05-16T03:15:12.804Z,2.37
2019-05-16T03:17:44.149Z,3.40
2019-05-16T03:20:12.517Z,2.27
2019-05-16T03:23:02.219Z,2.77
2019-05-16T03:25:31.041Z,4.53
2019-05-16T03:27:57.801Z,3.63
2019-05-16T03:30:24.805Z,2.73
2019-05-16T03:32:54.661Z,3.63
2019-05-16T03:35:24.589Z,2.47
2019-05-16T03:37:55.541Z,1.73
2019-05-16T03:40:26.334Z,6.43
2019-05-16T03:42:53.447Z,3.10
2019-05-16T03:45:21.342Z,3.93
2019-05-16T03:47:51.102Z,2.23
2019-05-16T03:50:17.212Z,2.20
2019-05-16T03:52:44.099Z,3.30
2019-05-16T03:55:11.601Z,4.07
2019-05-16T03:57:41.494Z,4.30
2019-05-16T04:00:11.404Z,3.57
2019-05-16T04:02:36.886Z,2.00
2019-05-16T04:05:03.996Z,1.97
2019-05-16T04:07:31.781Z,3.47
2019-05-16T04:10:02.238Z,3.23
2019-05-16T04:12:30.786Z,2.43
2019-05-16T04:14:57.084Z,4.00
2019-05-16T04:17:23.821Z,4.20
2019-05-16T04:19:51.010Z,5.57
2019-05-16T04:22:21.268Z,3.20
2019-05-16T04:24:46.875Z,2.00
2019-05-16T04:27:14.012Z,4.27
2019-05-16T04:29:41.056Z,3.03
2019-05-16T04:32:10.868Z,1.97
2019-05-16T04:34:36.760Z,3.53
2019-05-16T04:37:03.805Z,4.60
2019-05-16T04:39:31.834Z,3.43
2019-05-16T04:42:01.612Z,2.33
2019-05-16T04:44:31.071Z,5.63
2019-05-16T04:46:56.954Z,5.13
2019-05-16T04:49:23.956Z,1.73
2019-05-16T04:51:51.734Z,2.07
2019-05-16T04:54:21.589Z,2.47
2019-05-16T04:56:47.580Z,1.70
2019-05-16T04:59:16.725Z,3.83
2019-05-16T05:01:43.192Z,3.80
2019-05-16T05:04:14.376Z,2.93
2019-05-16T05:06:40.589Z,3.87
2019-05-16T05:09:07.515Z,3.37
2019-05-16T05:11:34.463Z,2.77
2019-05-16T05:14:01.212Z,2.97
2019-05-16T05:16:30.489Z,2.70
2019-05-16T05:18:56.859Z,6.00
2019-05-16T05:21:23.602Z,2.37
2019-05-16T05:23:50.830Z,1.40
2019-05-16T05:26:19.993Z,3.13
2019-05-16T05:28:46.914Z,3.20
2019-05-16T05:31:13.904Z,2.73
2019-05-16T05:33:41.567Z,2.60
2019-05-16T05:36:11.964Z,2.50
2019-05-16T05:38:40.093Z,2.93
2019-05-16T05:41:06.322Z,3.07
2019-05-16T05:43:33.224Z,4.20
2019-05-16T05:46:00.803Z,2.60
2019-05-16T05:48:30.571Z,1.87
2019-05-16T05:50:56.533Z,4.97
2019-05-16T05:53:23.414Z,4.27
2019-05-16T05:55:51.189Z,2.43
2019-05-16T05:58:20.580Z,9.33
2019-05-16T06:00:47.475Z,4.90
2019-05-16T06:03:14.351Z,2.27
2019-05-16T06:05:41.404Z,4.47
2019-05-16T06:08:10.519Z,1.57
2019-05-16T06:10:37.156Z,2.60
2019-05-16T06:13:04.004Z,1.73
2019-05-16T06:15:30.979Z,3.70
2019-05-16T06:18:00.049Z,3.10
2019-05-16T06:20:26.723Z,2.77
2019-05-16T06:22:53.595Z,1.53
2019-05-16T06:25:22.961Z,2.77
2019-05-16T06:27:51.159Z,3.10
2019-05-16T06:30:20.632Z,2.07
2019-05-16T06:32:46.707Z,1.30
2019-05-16T06:35:13.798Z,2.50
2019-05-16T06:37:40.906Z,2.40
2019-05-16T06:40:10.722Z,7.77
2019-05-16T06:42:37.319Z,3.20
2019-05-16T06:45:04.603Z,3.37
2019-05-16T06:47:31.397Z,2.57
2019-05-16T06:50:00.222Z,1.40
2019-05-16T06:52:27.287Z,4.30
2019-05-16T06:54:54.051Z,3.40
2019-05-16T06:57:20.907Z,2.30
2019-05-16T06:59:49.876Z,2.37
2019-05-16T07:02:27.811Z,1.53
2019-05-16T07:04:45.300Z,2.37
2019-05-16T07:07:12.831Z,2.67
2019-05-16T07:09:41.817Z,2.07
2019-05-16T07:12:10.467Z,1.93
2019-05-16T07:14:37.303Z,2.23
2019-05-16T07:17:04.246Z,3.27
2019-05-16T07:19:31.117Z,2.70
2019-05-16T07:21:59.809Z,3.17
2019-05-16T07:24:26.654Z,1.97
2019-05-16T07:26:53.687Z,1.30
2019-05-16T07:29:20.563Z,3.07
2019-05-16T07:31:47.519Z,3.10
2019-05-16T07:34:14.757Z,2.83
2019-05-16T07:36:41.694Z,3.20
2019-05-16T07:39:10.847Z,2.57
2019-05-16T07:41:37.171Z,1.67
2019-05-16T07:44:04.163Z,1.97
2019-05-16T07:46:31.539Z,2.13
2019-05-16T07:49:01.218Z,1.60
2019-05-16T07:51:27.488Z,2.13
2019-05-16T07:53:54.502Z,1.43
2019-05-16T07:56:21.319Z,2.70
2019-05-16T07:58:50.496Z,3.10
2019-05-16T08:01:17.082Z,1.30
2019-05-16T08:03:44.303Z,1.13
2019-05-16T08:06:11.307Z,2.80
2019-05-16T08:08:40.345Z,5.23
2019-05-16T08:11:06.980Z,2.40
2019-05-16T08:13:33.867Z,2.77
2019-05-16T08:18:30.358Z,1.83
2019-05-16T08:21:00.193Z,1.00
2019-05-16T08:23:26.118Z,1.60
2019-05-16T08:25:52.874Z,1.67
2019-05-16T08:30:51.492Z,1.37
2019-05-16T08:33:17.277Z,4.10
2019-05-16T08:35:44.322Z,2.40
2019-05-16T08:38:13.501Z,2.73
2019-05-16T08:41:01.088Z,4.47
2019-05-16T08:43:11.800Z,2.92
2019-05-16T08:45:41.569Z,7.65
2019-05-16T08:48:06.935Z,1.22
2019-05-16T08:50:04.936Z,0.80
2019-05-16T08:50:34.986Z,3.12
2019-05-16T08:53:02.935Z,3.92
2019-05-16T08:55:31.298Z,2.42
2019-05-16T08:58:01.313Z,1.85
2019-05-16T09:00:27.403Z,2.42
2019-05-16T09:02:54.436Z,2.80
2019-05-16T09:05:22.686Z,2.65
2019-05-16T09:07:49.932Z,2.05
2019-05-16T09:10:10.717Z,2.43
2019-05-16T09:12:47.745Z,3.90
2019-05-16T09:15:17.056Z,3.95
2019-05-16T09:17:43.483Z,4.62
2019-05-16T09:20:10.647Z,2.30
2019-05-16T09:22:38.031Z,2.47
2019-05-16T09:25:08.094Z,1.42
2019-05-16T09:27:34.670Z,5.92
2019-05-16T09:30:01.483Z,4.10
2019-05-16T09:32:28.354Z,1.47
2019-05-16T09:35:03.859Z,1.45
2019-05-16T09:37:26.583Z,1.90
2019-05-16T09:39:53.046Z,1.92
2019-05-16T09:42:20.007Z,2.17
2019-05-16T09:44:47.553Z,3.80
2019-05-16T09:47:17.593Z,1.80
2019-05-16T09:49:43.901Z,2.35
2019-05-16T09:52:11.019Z,1.70
2019-05-16T09:54:38.110Z,2.70
2019-05-16T09:57:06.548Z,3.77
2019-05-16T09:59:33.556Z,2.33
2019-05-16T10:02:00.284Z,4.90
2019-05-16T10:04:27.285Z,4.70
2019-05-16T10:06:57.024Z,6.60
2019-05-16T10:09:37.777Z,2.13
2019-05-16T10:12:06.922Z,3.57
2019-05-16T10:14:20.818Z,1.77
2019-05-16T10:16:47.943Z,4.00
2019-05-16T10:19:16.885Z,1.93
2019-05-16T10:21:43.649Z,4.03
2019-05-16T10:24:10.515Z,2.70
2019-05-16T10:26:37.328Z,1.87
2019-05-16T10:29:10.460Z,5.37
2019-05-16T10:31:44.892Z,2.23
2019-05-16T10:34:01.861Z,2.47
2019-05-16T10:36:28.759Z,2.70
2019-05-16T10:38:58.993Z,2.63
2019-05-16T10:41:24.583Z,4.25
2019-05-16T10:43:51.521Z,4.92
2019-05-16T10:46:18.298Z,2.75
2019-05-16T10:48:46.924Z,4.17
2019-05-16T10:51:13.985Z,4.85
2019-05-16T10:54:02.527Z,4.00
2019-05-16T10:56:09.855Z,3.62
2019-05-16T10:58:51.701Z,3.62
2019-05-16T11:01:19.559Z,5.12
2019-05-16T11:03:34.651Z,4.95
2019-05-16T11:06:05.799Z,4.03
2019-05-16T11:08:30.575Z,3.52
2019-05-16T11:10:57.398Z,5.03
2019-05-16T11:13:24.496Z,4.53
2019-05-16T11:15:51.211Z,3.70
2019-05-16T11:18:18.195Z,3.80
2019-05-16T11:20:48.939Z,3.25
2019-05-16T11:23:13.751Z,3.45
2019-05-16T11:25:40.524Z,2.33
2019-05-16T11:28:07.544Z,4.37
2019-05-16T11:30:37.330Z,1.90
2019-05-16T11:33:03.274Z,4.47
2019-05-16T11:35:30.133Z,3.92
2019-05-16T11:37:57.146Z,3.15
2019-05-16T11:40:24.980Z,2.15
2019-05-16T11:43:05.659Z,2.92
2019-05-16T11:45:21.007Z,4.87
2019-05-16T11:47:47.886Z,2.55
2019-05-16T11:50:17.767Z,4.78
2019-05-16T11:52:43.837Z,3.75
2019-05-16T11:55:10.988Z,4.30
2019-05-16T11:57:38.110Z,4.55
2019-05-16T12:00:07.964Z,3.40
2019-05-16T12:02:37.368Z,3.83
2019-05-16T12:05:04.362Z,2.92
2019-05-16T12:07:32.984Z,6.87
2019-05-16T12:09:59.953Z,3.80
2019-05-16T12:12:27.148Z,5.47
2019-05-16T12:14:55.960Z,4.58
2019-05-16T12:17:27.821Z,4.40
2019-05-16T12:19:52.899Z,6.40
2019-05-16T12:22:20.079Z,3.10
2019-05-16T12:24:47.734Z,4.03
2019-05-16T12:27:16.772Z,4.07
2019-05-16T12:29:43.521Z,6.10
2019-05-16T12:32:10.350Z,2.30
2019-05-16T12:34:37.250Z,2.47
2019-05-16T12:37:04.116Z,6.83
2019-05-16T12:39:30.866Z,6.80
2019-05-16T12:41:59.163Z,3.37
2019-05-16T12:44:26.982Z,4.28
2019-05-16T12:46:56.773Z,3.67
2019-05-16T12:49:22.784Z,3.23
2019-05-16T12:51:49.603Z,3.80
2019-05-16T12:54:18.252Z,5.33
2019-05-16T12:56:47.952Z,3.20
2019-05-16T12:59:20.437Z,3.03
2019-05-16T13:01:42.880Z,2.70
2019-05-16T13:04:12.540Z,8.17
2019-05-16T13:06:38.645Z,3.80
2019-05-16T13:09:07.037Z,5.47
2019-05-16T13:11:33.907Z,3.50
2019-05-16T13:14:06.477Z,3.50
2019-05-16T13:16:29.767Z,4.93
2019-05-16T13:18:56.758Z,4.67
2019-05-16T13:21:23.764Z,3.83
2019-05-16T13:23:51.364Z,3.47
2019-05-16T13:26:18.262Z,8.00
2019-05-16T13:28:47.544Z,2.83
2019-05-16T13:31:16.928Z,4.47
2019-05-16T13:33:42.992Z,2.63
2019-05-16T13:36:09.831Z,4.93
2019-05-16T13:38:36.596Z,4.17
2019-05-16T13:41:03.674Z,2.80
2019-05-16T13:43:30.635Z,3.60
2019-05-16T13:45:57.740Z,5.83
2019-05-16T13:48:26.758Z,6.30
2019-05-16T13:51:08.359Z,4.00
2019-05-16T13:53:22.390Z,6.43
2019-05-16T13:55:49.241Z,6.53
2019-05-16T13:58:17.818Z,4.30
2019-05-16T14:00:47.839Z,3.07
2019-05-16T14:03:13.885Z,5.00
2019-05-16T14:05:40.735Z,5.50
2019-05-16T14:08:07.530Z,6.67
2019-05-16T14:10:37.191Z,6.90
2019-05-16T14:13:03.392Z,5.47
2019-05-16T14:15:30.325Z,7.37
2019-05-16T14:17:57.182Z,5.87
2019-05-16T14:20:24.139Z,9.97
2019-05-16T14:22:51.015Z,8.57
2019-05-16T14:25:17.912Z,5.73
2019-05-16T14:27:47.346Z,8.37
2019-05-16T14:30:13.839Z,7.87
2019-05-16T14:32:43.551Z,7.47
2019-05-16T14:35:09.975Z,8.37
2019-05-16T14:37:37.910Z,10.57
2019-05-16T14:40:06.160Z,8.93
2019-05-16T14:42:33.153Z,9.97
2019-05-16T14:45:11.162Z,10.00
2019-05-16T14:47:28.935Z,6.47
2019-05-16T14:49:55.758Z,6.03
2019-05-16T14:52:22.460Z,5.23
2019-05-16T14:54:49.265Z,6.63
2019-05-16T14:57:16.676Z,5.67
2019-05-16T14:59:43.835Z,6.27
2019-05-16T15:02:10.771Z,5.97
2019-05-16T15:04:37.798Z,4.60
2019-05-16T15:07:07.005Z,8.80
2019-05-16T15:09:33.845Z,4.37
2019-05-16T15:12:00.570Z,3.63
2019-05-16T15:14:28.133Z,6.13
2019-05-16T15:16:57.437Z,4.23
2019-05-16T15:19:23.848Z,5.23
2019-05-16T15:21:50.660Z,7.60
2019-05-16T15:24:17.958Z,4.87
2019-05-16T15:26:47.293Z,4.27
2019-05-16T15:29:16.363Z,3.43
2019-05-16T15:31:42.528Z,7.33
2019-05-16T15:34:09.484Z,4.33
2019-05-16T15:36:37.299Z,4.87
2019-05-16T15:39:08.007Z,5.90
2019-05-16T15:41:36.674Z,4.70
2019-05-16T15:44:04.019Z,5.30
2019-05-16T15:46:30.876Z,3.87
2019-05-16T15:49:00.461Z,5.63
2019-05-16T15:51:27.392Z,4.40
2019-05-16T15:53:57.094Z,5.23
2019-05-16T15:56:26.949Z,3.97
2019-05-16T15:58:53.142Z,5.10
2019-05-16T16:01:20.229Z,7.63
2019-05-16T16:03:47.515Z,3.20
2019-05-16T16:06:14.578Z,4.67
2019-05-16T16:08:41.382Z,3.03
2019-05-16T16:11:09.395Z,2.87
2019-05-16T16:13:37.375Z,2.37
2019-05-16T16:16:09.150Z,3.20
2019-05-16T16:18:33.613Z,2.37
2019-05-16T16:21:00.653Z,2.80
2019-05-16T16:23:27.606Z,2.37
2019-05-16T16:25:59.278Z,2.10
2019-05-16T16:28:23.495Z,2.57
2019-05-16T16:30:50.356Z,5.03
2019-05-16T16:33:25.514Z,3.20
2019-05-16T16:35:47.934Z,2.07
2019-05-16T16:38:16.968Z,4.73
2019-05-16T16:40:44.153Z,2.37
2019-05-16T16:43:11.151Z,1.90
2019-05-16T16:45:38.116Z,4.43
2019-05-16T16:48:07.602Z,4.50
2019-05-16T16:50:33.751Z,3.10
2019-05-16T16:53:00.724Z,3.87
2019-05-16T16:55:28.766Z,3.53
2019-05-16T16:57:59.001Z,6.60
2019-05-16T17:00:27.730Z,8.33
2019-05-16T17:03:03.338Z,4.13
2019-05-16T17:05:22.194Z,3.07
2019-05-16T17:07:49.075Z,5.20
2019-05-16T17:10:16.963Z,4.63
2019-05-16T17:12:46.693Z,2.57
2019-05-16T17:15:17.114Z,4.23
2019-05-16T17:17:46.487Z,4.57
2019-05-16T17:20:13.303Z,3.63
2019-05-16T17:22:40.044Z,5.00
2019-05-16T17:25:07.659Z,2.67
2019-05-16T17:27:37.320Z,4.50
2019-05-16T17:30:07.473Z,4.57
2019-05-16T17:32:34.223Z,5.37
2019-05-16T17:35:01.051Z,5.57
2019-05-16T17:37:27.920Z,4.07
2019-05-16T17:39:56.810Z,3.20
2019-05-16T17:42:23.791Z,2.77
2019-05-16T17:44:50.758Z,2.73
2019-05-16T17:47:17.870Z,3.90
2019-05-16T17:49:46.250Z,9.73
2019-05-16T17:52:13.351Z,5.17
2019-05-16T17:54:40.197Z,4.40
2019-05-16T17:57:07.448Z,3.33
2019-05-16T17:59:34.786Z,4.87
2019-05-16T18:02:01.796Z,4.27
2019-05-16T18:04:28.804Z,3.20
2019-05-16T18:06:57.698Z,3.83
2019-05-16T18:09:24.583Z,3.03
2019-05-16T18:11:51.428Z,2.13
2019-05-16T18:14:18.189Z,2.33
2019-05-16T18:16:53.510Z,2.97
2019-05-16T18:19:13.844Z,3.17
2019-05-16T18:21:40.827Z,2.93
2019-05-16T18:24:07.711Z,2.60
2019-05-16T18:26:37.362Z,3.83
2019-05-16T18:29:06.711Z,2.37
2019-05-16T18:31:33.151Z,2.30
2019-05-16T18:33:59.891Z,2.20
2019-05-16T18:36:26.841Z,4.07
2019-05-16T18:38:53.715Z,3.87
2019-05-16T18:41:20.695Z,3.63
2019-05-16T18:43:47.639Z,2.53
2019-05-16T18:46:16.246Z,2.93
2019-05-16T18:48:43.508Z,3.07
2019-05-16T18:51:10.381Z,3.40
2019-05-16T18:53:37.636Z,3.63
2019-05-16T18:56:04.908Z,3.23
2019-05-16T18:58:32.011Z,2.67
2019-05-16T19:00:58.923Z,2.07
2019-05-16T19:03:27.088Z,2.27
2019-05-16T19:05:54.159Z,3.30
2019-05-16T19:08:20.933Z,3.70
2019-05-16T19:10:48.172Z,2.17
2019-05-16T19:13:16.858Z,2.30
2019-05-16T19:15:48.955Z,2.77
2019-05-16T19:18:12.768Z,3.43
2019-05-16T19:20:39.882Z,2.23
2019-05-16T19:23:07.623Z,3.10
2019-05-16T19:25:34.766Z,3.33
2019-05-16T19:28:01.634Z,3.10
2019-05-16T19:30:28.567Z,4.13
2019-05-16T19:32:57.492Z,5.50
2019-05-16T19:35:27.305Z,3.10
2019-05-16T19:37:53.290Z,5.00
2019-05-16T19:40:20.468Z,3.97
2019-05-16T19:42:47.458Z,5.50
2019-05-16T19:45:16.915Z,4.93
2019-05-16T19:47:43.581Z,4.23
2019-05-16T19:50:11.119Z,4.07
2019-05-16T19:52:38.103Z,4.30
2019-05-16T19:55:07.134Z,4.17
2019-05-16T19:57:34.375Z,5.40
2019-05-16T20:00:01.342Z,5.03
2019-05-16T20:02:28.307Z,4.30
2019-05-16T20:04:56.250Z,4.63
2019-05-16T20:07:23.399Z,6.00
2019-05-16T20:09:50.144Z,4.93
2019-05-16T20:12:17.061Z,4.40
2019-05-16T20:14:44.055Z,4.77
2019-05-16T20:17:10.955Z,7.30
2019-05-16T20:19:37.872Z,5.20
2019-05-16T20:22:04.808Z,5.33
2019-05-16T20:24:31.741Z,5.23
2019-05-16T20:26:59.082Z,5.00
2019-05-16T20:29:27.378Z,6.57
2019-05-16T20:31:56.832Z,5.50
2019-05-16T20:34:23.591Z,6.50
2019-05-16T20:36:51.567Z,6.00
2019-05-16T20:39:18.576Z,6.93
2019-05-16T20:41:47.449Z,5.23
2019-05-16T20:44:14.363Z,6.20
2019-05-16T20:46:41.231Z,6.00
2019-05-16T20:49:08.193Z,6.03
2019-05-16T20:51:37.482Z,6.70
2019-05-16T20:54:06.930Z,7.90
2019-05-16T20:56:33.335Z,7.27
2019-05-16T20:59:00.813Z,5.80
2019-05-16T21:01:28.006Z,9.70
2019-05-16T21:03:57.180Z,7.20
2019-05-16T21:06:26.331Z,7.83
2019-05-16T21:08:53.273Z,6.80
2019-05-16T21:11:20.141Z,8.23
2019-05-16T21:13:49.009Z,5.90
2019-05-16T21:16:16.394Z,5.67
2019-05-16T21:18:43.404Z,5.83
2019-05-16T21:21:10.483Z,5.47
2019-05-16T21:23:37.434Z,6.70
2019-05-16T21:26:04.371Z,6.93
2019-05-16T21:28:31.393Z,7.33
2019-05-16T21:30:58.447Z,7.27
2019-05-16T21:33:27.334Z,6.10
2019-05-16T21:35:56.382Z,6.75
2019-05-16T21:38:22.930Z,7.90
2019-05-16T21:40:49.963Z,6.40
2019-05-16T21:43:16.948Z,5.40
2019-05-16T21:45:44.011Z,5.93
2019-05-16T21:48:10.879Z,6.23
2019-05-16T21:50:37.943Z,5.80
2019-05-16T21:53:07.072Z,7.23
2019-05-16T21:55:36.306Z,5.47
2019-05-16T21:58:03.327Z,6.27
2019-05-16T22:00:37.646Z,6.97
2019-05-16T22:03:05.120Z,6.63
2019-05-16T22:05:32.076Z,5.97
2019-05-16T22:07:58.963Z,6.67
2019-05-16T22:10:26.630Z,6.80
2019-05-16T22:12:53.601Z,6.67
2019-05-16T22:15:20.589Z,7.40
2019-05-16T22:17:47.358Z,6.77
2019-05-16T22:20:16.375Z,6.60
2019-05-16T22:22:43.063Z,7.07
2019-05-16T22:25:10.267Z,7.47
2019-05-16T22:27:37.236Z,10.03
2019-05-16T22:30:08.981Z,6.83
2019-05-16T22:32:36.375Z,7.57
2019-05-16T22:35:03.652Z,7.23
2019-05-16T22:37:30.499Z,6.90
2019-05-16T22:39:59.710Z,7.13
2019-05-16T22:42:26.777Z,8.13
2019-05-16T22:44:53.791Z,7.17
2019-05-16T22:47:20.878Z,6.37
2019-05-16T22:49:47.860Z,8.17
2019-05-16T22:52:14.573Z,7.30
2019-05-16T22:54:41.335Z,7.60
2019-05-16T22:57:08.350Z,8.10
2019-05-16T22:59:35.089Z,7.33
2019-05-16T23:02:03.757Z,7.90
2019-05-16T23:04:30.503Z,7.67
2019-05-16T23:06:57.264Z,7.33
2019-05-16T23:09:24.273Z,8.40
2019-05-16T23:11:51.023Z,9.63
2019-05-16T23:14:17.974Z,8.57
2019-05-16T23:16:46.454Z,10.40
2019-05-16T23:19:13.384Z,8.23
2019-05-16T23:21:40.126Z,9.43
2019-05-16T23:24:06.986Z,8.63
2019-05-16T23:26:36.227Z,8.43
2019-05-16T23:29:02.999Z,9.20
2019-05-16T23:31:29.752Z,8.73
2019-05-16T23:33:56.615Z,8.83
2019-05-16T23:36:23.621Z,9.90
2019-05-16T23:38:50.483Z,10.63
2019-05-16T23:41:17.431Z,9.27
2019-05-16T23:43:44.404Z,10.37
2019-05-16T23:46:11.195Z,9.63
2019-05-16T23:48:38.098Z,10.30
2019-05-16T23:51:07.497Z,9.03
2019-05-16T23:53:33.675Z,8.77
2019-05-16T23:56:00.687Z,8.97
2019-05-16T23:58:27.696Z,10.07
